Winfield, Kansas
Current Conditions -  °F | °C
As of 3:54 AM on Sunday 25 Jan 2015 (Local Time) from KWLD Reporting Station
Clear Clear  
Wind Chill: 41°   Ceiling: Unl
Heat Index: 48°   Visibility: 10mi
Dew Point: 31°   Wind: 22mph
Humidity: 52%   Direction: 320°NW
Pressure: 29.86"   Gusts: 28mph
Location:  37.24°N, 97°W
Report Text: KWLD 250954Z AUTO 32019G24KT 10SM CLR 09/M01 A2986 RMK AO2 PK WND 32029/0935 SLP107 T00891006
Loading
Personal Weather Stations






























Interactive Weather Map New forecast layout! Learn more

10-Day Weather Forecast

Advertisements
Track Severe Weather on mobile